createdAt,value
2022-10-01T00:01:44.940Z,2.60
2022-10-01T00:05:34.536Z,3.40
2022-10-01T00:09:24.021Z,4.00
2022-10-01T00:13:13.830Z,3.70
2022-10-01T00:17:03.261Z,3.10
2022-10-01T00:20:53.072Z,3.70
2022-10-01T00:24:41.328Z,2.30
2022-10-01T00:28:30.797Z,2.50
2022-10-01T00:32:19.956Z,1.90
2022-10-01T00:36:09.566Z,2.60
2022-10-01T00:39:59.490Z,3.20
2022-10-01T00:44:03.907Z,3.20
2022-10-01T00:47:56.226Z,4.40
2022-10-01T00:51:45.913Z,3.10
2022-10-01T00:55:56.590Z,3.00
2022-10-01T00:59:46.111Z,3.50
2022-10-01T01:03:35.174Z,3.50
2022-10-01T01:07:16.249Z,2.60
2022-10-01T01:11:05.808Z,2.80
2022-10-01T01:15:04.463Z,3.20
2022-10-01T01:19:05.732Z,4.20
2022-10-01T01:22:55.452Z,2.70
2022-10-01T01:26:37.950Z,3.40
2022-10-01T01:30:33.238Z,3.20
2022-10-01T01:34:22.628Z,2.90
2022-10-01T01:38:12.137Z,3.10
2022-10-01T01:42:01.508Z,2.80
2022-10-01T01:45:50.287Z,5.20
2022-10-01T01:49:39.858Z,3.60
2022-10-01T01:53:29.380Z,3.40
2022-10-01T01:57:19.327Z,3.10
2022-10-01T02:00:57.499Z,3.20
2022-10-01T02:04:47.842Z,2.60
2022-10-01T02:08:57.413Z,3.00
2022-10-01T02:12:48.861Z,3.60
2022-10-01T02:16:36.561Z,3.30
2022-10-01T02:20:38.224Z,1.90
2022-10-01T02:24:33.945Z,3.40
2022-10-01T02:28:32.512Z,3.60
2022-10-01T02:32:21.849Z,4.00
2022-10-01T02:36:11.145Z,2.50
2022-10-01T02:40:00.188Z,4.10
2022-10-01T02:43:49.578Z,4.40
2022-10-01T02:47:17.080Z,4.20
2022-10-01T02:51:06.710Z,5.30
2022-10-01T02:54:59.032Z,4.00
2022-10-01T02:59:06.025Z,2.80
2022-10-01T03:02:56.798Z,2.70
2022-10-01T03:06:46.114Z,2.60
2022-10-01T03:10:03.868Z,3.40
2022-10-01T03:13:53.226Z,3.40
2022-10-01T03:17:41.587Z,3.30
2022-10-01T03:21:31.325Z,3.10
2022-10-01T03:25:21.073Z,5.20
2022-10-01T03:29:10.765Z,2.90
2022-10-01T03:33:00.057Z,3.20
2022-10-01T03:36:49.799Z,2.90
2022-10-01T03:40:39.616Z,4.00
2022-10-01T03:44:22.107Z,3.50
2022-10-01T03:48:11.783Z,3.20
2022-10-01T03:52:01.184Z,4.10
2022-10-01T03:55:50.511Z,3.20
2022-10-01T03:59:40.326Z,4.30
2022-10-01T04:03:29.894Z,2.60
2022-10-01T04:07:19.410Z,5.10
2022-10-01T04:11:09.590Z,4.20
2022-10-01T04:14:59.530Z,3.50
2022-10-01T04:18:48.881Z,4.00
2022-10-01T04:22:21.196Z,3.90
2022-10-01T04:26:10.430Z,4.10
2022-10-01T04:30:00.123Z,3.20
2022-10-01T04:33:49.757Z,3.60
2022-10-01T04:37:39.558Z,3.90
2022-10-01T04:41:29.056Z,3.10
2022-10-01T04:45:18.931Z,3.20
2022-10-01T04:49:09.029Z,3.00
2022-10-01T04:52:58.851Z,3.30
2022-10-01T04:56:48.686Z,3.40
2022-10-01T05:00:38.377Z,3.50
2022-10-01T05:04:28.209Z,4.20
2022-10-01T05:07:57.824Z,2.60
2022-10-01T05:11:47.345Z,3.50
2022-10-01T05:15:37.204Z,2.70
2022-10-01T05:19:28.153Z,3.50
2022-10-01T05:23:17.816Z,3.30
2022-10-01T05:27:07.847Z,2.80
2022-10-01T05:30:57.430Z,3.60
2022-10-01T05:34:49.996Z,2.60
2022-10-01T05:38:43.028Z,2.60
2022-10-01T05:42:32.831Z,4.10
2022-10-01T05:46:15.588Z,2.20
2022-10-01T05:50:05.350Z,2.50
2022-10-01T05:53:53.906Z,3.40
2022-10-01T05:57:36.459Z,4.10
2022-10-01T06:01:16.164Z,4.40
2022-10-01T06:05:04.970Z,3.10
2022-10-01T06:08:55.498Z,3.10
2022-10-01T06:12:45.223Z,3.80
2022-10-01T06:16:35.127Z,2.60
2022-10-01T06:20:25.002Z,3.60
2022-10-01T06:24:14.735Z,2.10
2022-10-01T06:28:04.344Z,4.00
2022-10-01T06:31:54.344Z,3.40
2022-10-01T06:35:37.027Z,2.90
2022-10-01T06:39:15.401Z,2.80
2022-10-01T06:42:58.060Z,2.80
2022-10-01T06:46:30.381Z,2.20
2022-10-01T06:53:38.879Z,3.20
2022-10-01T06:57:30.067Z,2.80
2022-10-01T07:01:18.835Z,3.10
2022-10-01T07:05:03.799Z,3.20
2022-10-01T07:08:52.999Z,2.80
2022-10-01T07:12:42.967Z,3.00
2022-10-01T07:16:32.382Z,2.10
2022-10-01T07:20:05.047Z,2.70
2022-10-01T07:24:00.961Z,3.10
2022-10-01T07:27:48.731Z,3.10
2022-10-01T07:31:40.896Z,2.90
2022-10-01T07:35:31.047Z,3.90
2022-10-01T07:39:20.630Z,2.70
2022-10-01T07:43:10.205Z,2.60
2022-10-01T07:46:59.843Z,2.10
2022-10-01T07:50:50.777Z,2.70
2022-10-01T07:54:40.588Z,2.80
2022-10-01T07:58:33.617Z,3.50
2022-10-01T08:02:19.149Z,1.40
2022-10-01T08:06:03.461Z,3.10
2022-10-01T08:08:44.198Z,2.60
2022-10-01T08:11:28.318Z,2.80
2022-10-01T08:14:08.468Z,3.70
2022-10-01T08:17:58.522Z,2.90
2022-10-01T08:21:48.095Z,3.00
2022-10-01T08:25:38.148Z,1.40
2022-10-01T08:29:28.127Z,2.00
2022-10-01T08:33:17.620Z,1.30
2022-10-01T08:37:07.327Z,2.40
2022-10-01T08:40:57.285Z,2.60
2022-10-01T08:44:46.880Z,2.40
2022-10-01T08:48:39.010Z,2.30
2022-10-01T08:52:34.270Z,1.00
2022-10-01T08:56:24.522Z,1.90
2022-10-01T09:00:00.998Z,1.60
2022-10-01T09:03:52.834Z,1.90
2022-10-01T09:07:42.873Z,1.20
2022-10-01T09:11:45.214Z,1.20
2022-10-01T09:15:45.699Z,1.30
2022-10-01T09:19:47.976Z,1.50
2022-10-01T09:23:52.333Z,1.40
2022-10-01T09:27:41.020Z,1.80
2022-10-01T09:31:33.604Z,1.60
2022-10-01T09:35:29.519Z,1.70
2022-10-01T09:39:06.897Z,1.60
2022-10-01T09:42:47.672Z,1.40
2022-10-01T09:46:17.007Z,1.00
2022-10-01T09:49:44.856Z,2.00
2022-10-01T09:53:34.862Z,2.80
2022-10-01T09:57:36.101Z,1.20
2022-10-01T10:00:19.858Z,1.50
2022-10-01T10:04:03.972Z,1.40
2022-10-01T10:07:52.799Z,2.20
2022-10-01T10:11:27.812Z,1.70
2022-10-01T10:15:12.972Z,1.40
2022-10-01T10:19:08.295Z,1.30
2022-10-01T10:23:03.914Z,1.50
2022-10-01T10:26:58.146Z,1.50
2022-10-01T10:30:34.825Z,1.20
2022-10-01T10:34:21.112Z,1.30
2022-10-01T10:38:19.853Z,1.40
2022-10-01T10:41:51.454Z,1.80
2022-10-01T10:45:40.827Z,1.30
2022-10-01T10:49:22.182Z,1.10
2022-10-01T10:53:10.690Z,1.50
2022-10-01T10:56:37.864Z,1.50
2022-10-01T11:00:42.674Z,1.10
2022-10-01T11:04:21.199Z,1.10
2022-10-01T11:07:44.454Z,1.30
2022-10-01T11:11:42.339Z,1.30
2022-10-01T11:15:38.086Z,1.30
2022-10-01T11:19:15.278Z,1.00
2022-10-01T11:23:03.483Z,1.00
2022-10-01T11:26:34.440Z,1.60
2022-10-01T11:30:11.975Z,1.30
2022-10-01T11:34:07.454Z,1.50
2022-10-01T11:38:14.990Z,1.20
2022-10-01T11:41:55.857Z,1.40
2022-10-01T11:45:34.760Z,1.50
2022-10-01T11:49:06.657Z,1.10
2022-10-01T11:52:47.473Z,1.20
2022-10-01T11:56:47.456Z,1.40
2022-10-01T12:00:27.258Z,1.30
2022-10-01T12:04:13.724Z,1.80
2022-10-01T12:08:11.659Z,1.80
2022-10-01T12:12:10.120Z,1.50
2022-10-01T12:16:00.477Z,1.20
2022-10-01T12:19:50.182Z,1.10
2022-10-01T12:23:33.304Z,1.10
2022-10-01T12:27:25.037Z,1.00
2022-10-01T12:31:16.537Z,1.10
2022-10-01T12:35:21.098Z,1.20
2022-10-01T12:39:23.455Z,1.70
2022-10-01T12:43:16.547Z,1.40
2022-10-01T12:46:49.272Z,1.70
2022-10-01T12:50:27.186Z,1.10
2022-10-01T12:54:26.652Z,1.60
2022-10-01T12:58:19.410Z,1.90
2022-10-01T13:02:23.367Z,1.40
2022-10-01T13:06:29.806Z,1.40
2022-10-01T13:10:19.329Z,1.20
2022-10-01T13:14:02.211Z,1.10
2022-10-01T13:18:06.191Z,1.70
2022-10-01T13:21:36.274Z,1.00
2022-10-01T13:28:56.560Z,1.20
2022-10-01T13:32:37.152Z,1.30
2022-10-01T13:36:27.040Z,1.30
2022-10-01T13:40:22.835Z,1.00
2022-10-01T13:44:18.910Z,1.10
2022-10-01T13:48:08.442Z,1.40
2022-10-01T13:51:51.106Z,1.30
2022-10-01T13:55:49.604Z,2.10
2022-10-01T13:59:39.484Z,1.50
2022-10-01T14:03:38.077Z,1.20
2022-10-01T14:07:33.335Z,1.30
2022-10-01T14:11:25.542Z,1.80
2022-10-01T14:14:51.216Z,1.20
2022-10-01T14:18:40.760Z,1.50
2022-10-01T14:22:37.658Z,1.60
2022-10-01T14:25:31.779Z,1.50
2022-10-01T14:29:36.726Z,1.50
2022-10-01T14:33:28.914Z,1.10
2022-10-01T14:37:24.813Z,1.20
2022-10-01T14:41:18.889Z,1.80
2022-10-01T14:45:17.170Z,1.10
2022-10-01T14:49:06.844Z,1.30
2022-10-01T14:52:56.948Z,1.20
2022-10-01T14:56:46.570Z,1.60
2022-10-01T15:00:31.678Z,1.00
2022-10-01T15:04:11.629Z,2.10
2022-10-01T15:08:04.625Z,1.10
2022-10-01T15:12:03.041Z,0.90
2022-10-01T15:15:51.470Z,1.30
2022-10-01T15:19:42.730Z,1.20
2022-10-01T15:23:22.853Z,0.90
2022-10-01T15:27:12.744Z,1.60
2022-10-01T15:31:02.365Z,1.40
2022-10-01T15:34:35.432Z,1.50
2022-10-01T15:38:08.008Z,2.00
2022-10-01T15:41:38.336Z,1.20
2022-10-01T15:45:49.296Z,1.90
2022-10-01T15:49:42.490Z,1.60
2022-10-01T15:53:29.921Z,1.30
2022-10-01T15:57:20.546Z,1.40
2022-10-01T16:01:28.365Z,1.00
2022-10-01T16:05:18.060Z,3.20
2022-10-01T16:08:57.367Z,1.40
2022-10-01T16:12:56.063Z,1.40
2022-10-01T16:16:48.401Z,1.00
2022-10-01T16:20:13.109Z,2.00
2022-10-01T16:24:16.921Z,1.40
2022-10-01T16:28:06.726Z,1.30
2022-10-01T16:31:47.600Z,1.20
2022-10-01T16:35:56.711Z,1.30
2022-10-01T16:39:46.531Z,1.80
2022-10-01T16:43:36.205Z,1.70
2022-10-01T16:47:25.274Z,2.00
2022-10-01T16:50:35.386Z,1.10
2022-10-01T16:53:48.048Z,1.30
2022-10-01T16:56:45.935Z,1.20
2022-10-01T17:00:22.703Z,1.30
2022-10-01T17:03:32.918Z,2.00
2022-10-01T17:06:34.744Z,1.80
2022-10-01T17:10:24.480Z,1.40
2022-10-01T17:13:28.836Z,2.20
2022-10-01T17:16:56.611Z,2.10
2022-10-01T17:20:25.384Z,1.50
2022-10-01T17:24:15.155Z,1.10
2022-10-01T17:28:06.390Z,1.20
2022-10-01T17:31:48.924Z,1.70
2022-10-01T17:35:05.700Z,1.60
2022-10-01T17:38:39.174Z,1.10
2022-10-01T17:42:28.724Z,1.80
2022-10-01T17:46:19.062Z,1.10
2022-10-01T17:50:07.984Z,1.30
2022-10-01T17:53:50.400Z,1.20
2022-10-01T17:57:39.076Z,2.00
2022-10-01T18:01:30.629Z,1.80
2022-10-01T18:05:14.803Z,1.30
2022-10-01T18:09:04.675Z,1.40
2022-10-01T18:12:54.776Z,1.70
2022-10-01T18:16:42.225Z,1.70
2022-10-01T18:20:32.663Z,1.50
2022-10-01T18:24:22.451Z,1.20
2022-10-01T18:28:08.800Z,1.30
2022-10-01T18:32:13.497Z,1.20
2022-10-01T18:36:06.208Z,1.30
2022-10-01T18:40:00.133Z,2.40
2022-10-01T18:43:48.764Z,2.90
2022-10-01T18:47:38.273Z,1.30
2022-10-01T18:51:40.022Z,2.40
2022-10-01T18:55:32.504Z,1.60
2022-10-01T18:59:27.656Z,1.20
2022-10-01T19:03:10.944Z,1.40
2022-10-01T19:07:07.996Z,1.50
2022-10-01T19:11:06.898Z,1.60
2022-10-01T19:14:55.576Z,1.50
2022-10-01T19:18:41.658Z,1.60
2022-10-01T19:22:40.574Z,1.90
2022-10-01T19:26:39.089Z,1.50
2022-10-01T19:30:31.650Z,2.60
2022-10-01T19:34:27.132Z,1.50
2022-10-01T19:38:26.545Z,1.20
2022-10-01T19:42:24.842Z,1.30
2022-10-01T19:46:20.938Z,1.90
2022-10-01T19:50:10.092Z,2.00
2022-10-01T19:54:02.904Z,2.50
2022-10-01T19:57:54.727Z,2.00
2022-10-01T20:01:44.553Z,1.80
2022-10-01T20:05:33.282Z,2.10
2022-10-01T20:09:26.059Z,1.40
2022-10-01T20:13:24.440Z,2.40
2022-10-01T20:16:46.621Z,1.80
2022-10-01T20:20:49.460Z,1.20
2022-10-01T20:24:33.072Z,1.70
2022-10-01T20:28:14.528Z,2.10
2022-10-01T20:31:56.296Z,1.60
2022-10-01T20:35:49.884Z,1.70
2022-10-01T20:43:10.679Z,2.70
2022-10-01T20:47:00.503Z,1.70
2022-10-01T20:50:53.662Z,1.60
2022-10-01T20:54:51.220Z,2.20
2022-10-01T20:58:53.202Z,3.00
2022-10-01T21:02:42.981Z,1.70
2022-10-01T21:06:31.661Z,1.60
2022-10-01T21:10:24.195Z,1.60
2022-10-01T21:14:19.718Z,1.70
2022-10-01T21:18:15.205Z,2.10
2022-10-01T21:22:31.240Z,1.30
2022-10-01T21:26:28.910Z,2.20
2022-10-01T21:30:33.551Z,1.80
2022-10-01T21:34:25.081Z,1.60
2022-10-01T21:38:16.094Z,1.60
2022-10-01T21:42:23.050Z,1.80
2022-10-01T21:46:21.516Z,2.40
2022-10-01T21:50:06.515Z,2.10
2022-10-01T21:54:00.941Z,2.10
2022-10-01T21:57:51.041Z,1.50
2022-10-01T22:01:40.766Z,1.60
2022-10-01T22:05:35.837Z,1.90
2022-10-01T22:09:34.126Z,3.20
2022-10-01T22:13:22.938Z,2.20
2022-10-01T22:16:56.147Z,1.80
2022-10-01T22:20:49.333Z,2.10
2022-10-01T22:24:43.638Z,2.00
2022-10-01T22:28:36.301Z,2.00
2022-10-01T22:32:20.556Z,2.00
2022-10-01T22:39:36.606Z,1.60
2022-10-01T22:43:26.677Z,2.30
2022-10-01T22:47:11.161Z,2.60
2022-10-01T22:51:12.955Z,2.10
2022-10-01T22:55:12.423Z,2.30
2022-10-01T22:58:59.038Z,1.70
2022-10-01T23:02:38.602Z,2.10
2022-10-01T23:06:56.420Z,1.60
2022-10-01T23:10:48.669Z,2.70
2022-10-01T23:14:41.018Z,2.30
2022-10-01T23:18:31.213Z,2.30
2022-10-01T23:22:32.472Z,2.50
2022-10-01T23:26:20.438Z,2.30
2022-10-01T23:30:03.907Z,1.50
2022-10-01T23:34:02.890Z,1.80
2022-10-01T23:38:13.428Z,2.00
2022-10-01T23:42:12.607Z,1.90
2022-10-01T23:46:12.157Z,2.00
2022-10-01T23:50:03.483Z,2.70
2022-10-01T23:53:39.472Z,1.40
2022-10-01T23:57:37.190Z,1.80
